Time;durP1;ratioP1;P1;durP2;ratioP2;P2;SDS_P1;SDS_P2;PMS_P1;PMS_P2;Temp;Humidity;BMP_temperature;BMP_pressure;BME280_temperature;BME280_humidity;BME280_pressure;Samples;Min_cycle;Max_cycle;Signal;HPM_P1;HPM_P2
2020/12/13 00:01:27;;;;;;;25.90;21.43;;;5.20;99.90;;;;;;5037717;28;20230;-61
2020/12/13 00:03:52;;;;;;;27.67;21.70;;;5.20;99.90;;;;;;5037251;28;20214;-50
2020/12/13 00:06:18;;;;;;;28.27;22.60;;;5.30;99.90;;;;;;5037197;28;20203;-56
2020/12/13 00:08:43;;;;;;;28.13;21.97;;;5.30;99.90;;;;;;5037544;28;20175;-58
2020/12/13 00:11:09;;;;;;;26.73;20.47;;;5.30;99.90;;;;;;5036877;28;20195;-57
2020/12/13 00:13:35;;;;;;;27.60;22.93;;;5.30;99.90;;;;;;5036992;28;20178;-59
2020/12/13 00:16:00;;;;;;;30.87;24.57;;;5.30;99.90;;;;;;5037271;28;20176;-60
2020/12/13 00:18:26;;;;;;;28.80;22.83;;;5.30;99.90;;;;;;5036896;28;20203;-54
2020/12/13 00:20:51;;;;;;;29.50;23.53;;;5.30;99.90;;;;;;5037514;28;20563;-53
2020/12/13 00:23:17;;;;;;;30.03;23.40;;;5.30;99.90;;;;;;5037032;28;20207;-58
2020/12/13 00:25:42;;;;;;;29.10;22.97;;;5.30;99.90;;;;;;5037063;28;20180;-61
2020/12/13 00:28:08;;;;;;;31.50;23.47;;;5.30;99.90;;;;;;5036695;28;20218;-60
2020/12/13 00:30:33;;;;;;;28.57;22.83;;;5.40;99.90;;;;;;5037011;28;20171;-60
2020/12/13 00:32:59;;;;;;;29.70;22.83;;;5.30;99.90;;;;;;5036867;28;20186;-53
2020/12/13 00:35:24;;;;;;;29.43;24.00;;;5.30;99.90;;;;;;5036854;28;20662;-54
2020/12/13 00:37:51;;;;;;;28.63;23.17;;;5.30;99.90;;;;;;5037126;28;20204;-60
2020/12/13 00:40:17;;;;;;;30.33;23.30;;;5.30;99.90;;;;;;5037187;28;20608;-58
2020/12/13 00:42:43;;;;;;;32.53;24.50;;;5.30;99.90;;;;;;5036623;28;20211;-51
2020/12/13 00:45:08;;;;;;;32.23;25.57;;;5.30;99.90;;;;;;5036206;28;20263;-54
2020/12/13 00:47:34;;;;;;;30.93;24.27;;;5.20;99.90;;;;;;5036120;28;20223;-59
2020/12/13 00:49:59;;;;;;;27.77;22.93;;;5.20;99.90;;;;;;5036591;28;20257;-51
2020/12/13 00:52:25;;;;;;;31.53;24.73;;;5.10;99.90;;;;;;5037164;28;20693;-57
2020/12/13 00:54:50;;;;;;;28.87;23.47;;;5.20;99.90;;;;;;5036082;28;20179;-60
2020/12/13 00:57:16;;;;;;;32.57;25.23;;;5.10;99.90;;;;;;5036127;28;20204;-52
2020/12/13 00:59:41;;;;;;;31.07;25.00;;;5.10;99.90;;;;;;5036483;28;20652;-59
2020/12/13 01:02:07;;;;;;;34.00;26.27;;;5.10;99.90;;;;;;5035276;28;20598;-55
2020/12/13 01:04:34;;;;;;;32.20;26.10;;;5.20;99.90;;;;;;5034140;28;20535;-54
2020/12/13 01:07:08;;;;;;;30.93;24.37;;;5.10;99.90;;;;;;5035374;28;20227;-61
2020/12/13 01:09:34;;;;;;;28.77;23.50;;;5.10;99.90;;;;;;5036348;28;20166;-51
2020/12/13 01:11:59;;;;;;;32.33;25.53;;;5.10;99.90;;;;;;5035979;28;20204;-61
2020/12/13 01:14:25;;;;;;;32.40;25.27;;;5.10;99.90;;;;;;5036055;28;20184;-51
2020/12/13 01:16:53;;;;;;;33.67;25.70;;;5.10;99.90;;;;;;5036202;28;20203;-50
2020/12/13 01:19:19;;;;;;;30.00;24.40;;;5.10;99.90;;;;;;5036543;28;20230;-59
2020/12/13 01:21:44;;;;;;;32.63;24.43;;;5.10;99.90;;;;;;5036340;28;20212;-53
2020/12/13 01:24:10;;;;;;;32.23;24.87;;;5.10;99.90;;;;;;5036559;28;20180;-59
2020/12/13 01:26:35;;;;;;;29.50;24.40;;;5.10;99.90;;;;;;5035802;28;20211;-59
2020/12/13 01:29:01;;;;;;;35.53;27.47;;;5.10;99.90;;;;;;5036032;28;20796;-53
2020/12/13 01:31:27;;;;;;;33.47;25.00;;;5.10;99.90;;;;;;5035935;28;20176;-57
2020/12/13 01:33:53;;;;;;;30.10;24.20;;;5.10;99.90;;;;;;5035535;28;20176;-52
2020/12/13 01:36:21;;;;;;;31.83;24.27;;;5.10;99.90;;;;;;5035939;28;20303;-52
2020/12/13 01:38:47;;;;;;;31.63;24.73;;;5.20;99.90;;;;;;5035522;28;20207;-55
2020/12/13 01:41:13;;;;;;;30.67;24.20;;;5.20;99.90;;;;;;5035637;28;20517;-61
2020/12/13 01:43:39;;;;;;;33.53;24.77;;;5.20;99.90;;;;;;5035557;28;20301;-52
2020/12/13 01:46:05;;;;;;;31.80;25.23;;;5.20;99.90;;;;;;5035496;28;20619;-59
2020/12/13 01:48:32;;;;;;;32.50;24.70;;;5.30;99.90;;;;;;5035120;28;20195;-52
2020/12/13 01:51:16;;;;;;;30.23;24.07;;;5.20;99.90;;;;;;5035851;28;20524;-57
2020/12/13 01:53:45;;;;;;;31.07;25.10;;;5.20;99.90;;;;;;5046472;28;20644;-60
2020/12/13 01:56:14;;;;;;;30.50;24.17;;;5.20;99.90;;;;;;5054910;28;20178;-52
2020/12/13 01:58:42;;;;;;;33.03;25.03;;;5.20;99.90;;;;;;5055090;28;20203;-53
2020/12/13 02:01:08;;;;;;;30.43;23.73;;;5.20;99.90;;;;;;5055537;28;20183;-58
2020/12/13 02:03:42;;;;;;;30.00;23.70;;;5.30;99.90;;;;;;5054682;28;20244;-52
2020/12/13 02:06:22;;;;;;;31.13;24.20;;;5.30;99.90;;;;;;5054832;28;20270;-51
2020/12/13 02:08:49;;;;;;;31.07;24.87;;;5.30;99.90;;;;;;5055064;28;20174;-52
2020/12/13 02:11:15;;;;;;;31.03;24.47;;;5.40;99.90;;;;;;5054830;28;20273;-61
2020/12/13 02:13:41;;;;;;;32.37;25.40;;;5.30;99.90;;;;;;5054999;28;20524;-52
2020/12/13 02:16:07;;;;;;;29.50;23.67;;;5.30;99.90;;;;;;5054519;28;20254;-61
2020/12/13 02:18:34;;;;;;;34.73;25.90;;;5.40;99.90;;;;;;5054394;28;20650;-52
2020/12/13 02:21:01;;;;;;;31.73;23.90;;;5.40;99.90;;;;;;5054647;28;20202;-53
2020/12/13 02:23:28;;;;;;;32.27;24.47;;;5.40;99.90;;;;;;5054697;28;20195;-61
2020/12/13 02:25:53;;;;;;;33.17;25.90;;;5.50;99.90;;;;;;5054665;28;20168;-53
2020/12/13 02:28:19;;;;;;;32.47;24.93;;;5.50;99.90;;;;;;5055160;28;20183;-59
2020/12/13 02:30:44;;;;;;;32.63;25.07;;;5.50;99.90;;;;;;5054351;28;20170;-59
2020/12/13 02:33:10;;;;;;;32.43;24.10;;;5.50;99.90;;;;;;5054857;28;20175;-61
2020/12/13 02:35:36;;;;;;;34.00;25.87;;;5.40;99.90;;;;;;5054230;28;20185;-51
2020/12/13 02:38:01;;;;;;;33.73;24.83;;;5.40;99.90;;;;;;5054591;28;20198;-61
2020/12/13 02:40:27;;;;;;;32.30;25.23;;;5.40;99.90;;;;;;5055070;28;20197;-61
2020/12/13 02:42:52;;;;;;;29.50;23.90;;;5.40;99.90;;;;;;5054121;28;20198;-60
2020/12/13 02:45:18;;;;;;;30.83;24.77;;;5.50;99.90;;;;;;5053977;28;20562;-53
2020/12/13 02:47:44;;;;;;;31.37;24.27;;;5.50;99.90;;;;;;5054096;28;20187;-61
2020/12/13 02:50:09;;;;;;;30.77;24.10;;;5.60;99.90;;;;;;5054682;28;20271;-51
2020/12/13 02:52:35;;;;;;;32.77;25.13;;;5.60;99.90;;;;;;5054200;28;20178;-51
2020/12/13 02:55:00;;;;;;;32.27;24.57;;;5.60;99.90;;;;;;5054166;28;20213;-58
2020/12/13 02:57:26;;;;;;;31.13;24.43;;;5.50;99.90;;;;;;5054231;28;20223;-51
2020/12/13 02:59:51;;;;;;;30.83;24.23;;;5.50;99.90;;;;;;5053920;28;20221;-52
2020/12/13 03:02:17;;;;;;;30.73;23.63;;;5.50;99.90;;;;;;5054164;28;20217;-59
2020/12/13 03:04:42;;;;;;;31.07;24.53;;;5.50;99.90;;;;;;5054000;28;20639;-61
2020/12/13 03:07:11;;;;;;;32.07;24.77;;;5.40;99.90;;;;;;5053745;28;20186;-51
2020/12/13 03:09:37;;;;;;;33.13;24.30;;;5.50;99.90;;;;;;5054203;28;20171;-58
2020/12/13 03:12:04;;;;;;;32.60;24.57;;;5.50;99.90;;;;;;5053706;28;20194;-51
2020/12/13 03:14:30;;;;;;;29.77;23.83;;;5.50;99.90;;;;;;5053840;28;20206;-56
2020/12/13 03:16:55;;;;;;;32.57;24.57;;;5.50;99.90;;;;;;5054546;28;20214;-53
2020/12/13 03:19:21;;;;;;;32.27;25.17;;;5.50;99.90;;;;;;5053587;28;20209;-51
2020/12/13 03:21:46;;;;;;;31.57;24.60;;;5.50;99.90;;;;;;5053758;28;20712;-52
2020/12/13 03:24:12;;;;;;;34.43;25.47;;;5.60;99.90;;;;;;5053667;28;20577;-51
2020/12/13 03:26:38;;;;;;;33.60;24.80;;;5.60;99.90;;;;;;5056870;28;20221;-58
2020/12/13 03:29:04;;;;;;;31.60;24.03;;;5.60;99.90;;;;;;5060411;28;20521;-59
2020/12/13 03:31:30;;;;;;;31.97;24.53;;;5.50;99.90;;;;;;5060541;28;20252;-56
2020/12/13 03:33:55;;;;;;;30.87;23.80;;;5.60;99.90;;;;;;5060477;28;20171;-53
2020/12/13 03:36:21;;;;;;;33.57;24.83;;;5.60;99.90;;;;;;5060332;28;20174;-53
2020/12/13 03:38:46;;;;;;;30.57;23.17;;;5.60;99.90;;;;;;5060384;28;20194;-60
2020/12/13 03:41:12;;;;;;;30.77;23.43;;;5.60;99.90;;;;;;5061207;28;20179;-51
2020/12/13 03:43:37;;;;;;;30.10;23.33;;;5.60;99.90;;;;;;5059990;28;20205;-51
2020/12/13 03:46:03;;;;;;;33.30;24.87;;;5.70;99.90;;;;;;5060135;28;20167;-53
2020/12/13 03:48:28;;;;;;;32.43;25.00;;;5.60;99.90;;;;;;5059956;28;20202;-60
2020/12/13 03:50:54;;;;;;;30.73;23.70;;;5.60;99.90;;;;;;5060579;28;20175;-57
2020/12/13 03:53:20;;;;;;;31.73;23.30;;;5.60;99.90;;;;;;5060133;28;20244;-52
2020/12/13 03:55:45;;;;;;;31.93;23.47;;;5.60;99.90;;;;;;5060131;28;20576;-54
2020/12/13 03:58:11;;;;;;;29.97;22.90;;;5.60;99.90;;;;;;5060043;28;20213;-60
2020/12/13 04:00:37;;;;;;;31.00;23.50;;;5.60;99.90;;;;;;5060201;28;20262;-51
2020/12/13 04:03:04;;;;;;;31.77;23.10;;;5.60;99.90;;;;;;5059821;28;20735;-58
2020/12/13 04:05:31;;;;;;;32.40;24.43;;;5.60;99.90;;;;;;5060227;28;20181;-51
2020/12/13 04:07:57;;;;;;;32.63;22.97;;;5.50;99.90;;;;;;5059944;28;20187;-55
2020/12/13 04:10:22;;;;;;;32.07;24.23;;;5.50;99.90;;;;;;5060110;28;20201;-52
2020/12/13 04:12:48;;;;;;;31.30;23.57;;;5.50;99.90;;;;;;5060145;28;20687;-55
2020/12/13 04:15:14;;;;;;;32.50;23.50;;;5.50;99.90;;;;;;5059828;28;20193;-51
2020/12/13 04:17:40;;;;;;;31.33;23.67;;;5.50;99.90;;;;;;5060035;28;20279;-53
2020/12/13 04:20:07;;;;;;;33.43;24.30;;;5.50;99.90;;;;;;5060221;28;20217;-53
2020/12/13 04:22:33;;;;;;;33.07;23.27;;;5.50;99.90;;;;;;5059741;28;20543;-50
2020/12/13 04:24:58;;;;;;;32.20;23.50;;;5.50;99.90;;;;;;5060267;28;20637;-52
2020/12/13 04:27:24;;;;;;;30.90;24.03;;;5.50;99.90;;;;;;5059730;28;20187;-53
2020/12/13 04:29:50;;;;;;;32.33;24.33;;;5.50;99.90;;;;;;5059768;28;20974;-51
2020/12/13 04:32:15;;;;;;;31.97;23.63;;;5.50;99.90;;;;;;5060646;28;20597;-51
2020/12/13 04:34:41;;;;;;;30.37;22.77;;;5.50;99.90;;;;;;5059491;28;20197;-60
2020/12/13 04:37:07;;;;;;;32.53;23.73;;;5.40;99.90;;;;;;5059318;28;20191;-60
2020/12/13 04:39:34;;;;;;;30.73;22.50;;;5.40;99.90;;;;;;5055480;28;20178;-60
2020/12/13 04:42:01;;;;;;;33.60;24.57;;;5.50;99.90;;;;;;5056988;28;20203;-60
2020/12/13 04:44:28;;;;;;;35.63;24.27;;;5.60;99.90;;;;;;5056805;28;20615;-59
2020/12/13 04:46:55;;;;;;;30.80;22.97;;;5.60;99.90;;;;;;5056235;28;20551;-59
2020/12/13 04:49:24;;;;;;;32.90;24.03;;;5.70;99.90;;;;;;5056769;28;20599;-52
2020/12/13 04:51:51;;;;;;;34.87;24.07;;;5.70;99.90;;;;;;5038627;28;20635;-55
2020/12/13 04:54:21;;;;;;;32.53;24.07;;;5.70;99.90;;;;;;5056330;28;20193;-51
2020/12/13 04:56:50;;;;;;;32.20;22.83;;;5.70;99.90;;;;;;5056350;28;20272;-58
2020/12/13 04:59:17;;;;;;;32.13;23.90;;;5.70;99.90;;;;;;5056151;28;20654;-58
2020/12/13 05:01:46;;;;;;;31.80;23.70;;;5.70;99.90;;;;;;5055747;28;20193;-60
2020/12/13 05:04:12;;;;;;;29.03;21.57;;;5.70;99.90;;;;;;5055893;28;20175;-60
2020/12/13 05:06:41;;;;;;;30.80;22.97;;;5.60;99.90;;;;;;5055639;28;20194;-51
2020/12/13 05:09:09;;;;;;;31.77;23.23;;;5.70;99.90;;;;;;5056149;28;20171;-59
2020/12/13 05:11:35;;;;;;;30.70;22.40;;;5.70;99.90;;;;;;5055983;28;20195;-53
2020/12/13 05:14:02;;;;;;;30.27;22.83;;;5.70;99.90;;;;;;5055936;28;20175;-50
2020/12/13 05:16:28;;;;;;;29.57;22.63;;;5.70;99.90;;;;;;5055948;28;20178;-51
2020/12/13 05:18:54;;;;;;;29.93;22.60;;;5.70;99.90;;;;;;5055729;28;20167;-51
2020/12/13 05:21:21;;;;;;;31.17;23.60;;;5.70;99.90;;;;;;5055741;28;20198;-59
2020/12/13 05:23:47;;;;;;;30.10;22.30;;;5.70;99.90;;;;;;5056522;28;20199;-53
2020/12/13 05:26:15;;;;;;;30.50;22.87;;;5.70;99.90;;;;;;5055934;28;20229;-57
2020/12/13 05:28:47;;;;;;;28.13;22.17;;;5.80;99.90;;;;;;5055851;28;20194;-52
2020/12/13 05:31:15;;;;;;;30.40;22.40;;;5.70;99.90;;;;;;5056114;28;20182;-61
2020/12/13 05:33:45;;;;;;;29.77;22.53;;;5.70;99.90;;;;;;5056026;28;20206;-52
2020/12/13 05:36:12;;;;;;;29.53;21.73;;;5.70;99.90;;;;;;5055499;28;20187;-61
2020/12/13 05:38:39;;;;;;;27.97;21.87;;;5.80;99.90;;;;;;5055782;28;20252;-60
2020/12/13 05:41:07;;;;;;;29.77;22.40;;;5.80;99.90;;;;;;5055817;28;20175;-56
2020/12/13 05:44:03;;;;;;;27.50;21.17;;;5.80;99.90;;;;;;5055696;28;20206;-51
2020/12/13 05:46:47;;;;;;;27.60;21.27;;;5.80;99.90;;;;;;5054265;28;20178;-54
2020/12/13 05:51:58;;;;;;;27.87;21.03;;;5.70;99.90;;;;;;5055361;28;20270;-53
2020/12/13 05:54:25;;;;;;;27.73;20.10;;;5.70;99.90;;;;;;5054943;28;20761;-57
2020/12/13 05:56:59;;;;;;;30.43;22.37;;;5.60;99.90;;;;;;5055783;28;20191;-61
2020/12/13 05:59:25;;;;;;;28.87;22.27;;;5.70;99.90;;;;;;5055401;28;20187;-61
2020/12/13 06:01:58;;;;;;;27.33;20.63;;;5.70;99.90;;;;;;5055249;28;20203;-52
2020/12/13 06:04:27;;;;;;;28.20;21.33;;;5.70;99.90;;;;;;5055234;28;20226;-59
2020/12/13 06:07:02;;;;;;;26.77;20.60;;;5.70;99.90;;;;;;5054817;28;20198;-51
2020/12/13 06:09:35;;;;;;;26.33;20.60;;;5.70;99.90;;;;;;5054790;28;20619;-55
2020/12/13 06:12:06;;;;;;;29.07;21.40;;;5.70;99.90;;;;;;5054968;28;20191;-54
2020/12/13 06:14:33;;;;;;;29.97;22.03;;;5.70;99.90;;;;;;5055084;28;20179;-61
2020/12/13 06:17:00;;;;;;;28.73;21.53;;;5.70;99.90;;;;;;5054905;28;20248;-61
2020/12/13 06:19:29;;;;;;;27.63;20.50;;;5.80;99.90;;;;;;5054733;28;20178;-60
2020/12/13 06:22:03;;;;;;;31.47;23.93;;;5.80;99.90;;;;;;5054468;28;20278;-51
2020/12/13 06:24:29;;;;;;;33.20;24.93;;;5.70;99.90;;;;;;5054655;28;20296;-55
2020/12/13 06:26:55;;;;;;;30.67;22.67;;;5.80;99.90;;;;;;5054349;28;20735;-52
2020/12/13 06:29:23;;;;;;;31.40;23.30;;;5.80;99.90;;;;;;5055186;28;20177;-60
2020/12/13 06:31:50;;;;;;;29.13;23.10;;;5.80;99.90;;;;;;5054432;28;20163;-61
2020/12/13 06:34:17;;;;;;;31.40;23.60;;;5.80;99.90;;;;;;5054358;28;20180;-51
2020/12/13 06:36:43;;;;;;;28.53;21.13;;;5.90;99.90;;;;;;5054646;28;20670;-51
2020/12/13 06:39:14;;;;;;;27.70;20.90;;;5.90;99.90;;;;;;5054644;28;20203;-51
2020/12/13 06:41:49;;;;;;;28.47;20.33;;;5.90;99.90;;;;;;5054632;28;20198;-51
2020/12/13 06:44:16;;;;;;;27.73;21.60;;;5.90;99.90;;;;;;5054505;28;20174;-60
2020/12/13 06:46:44;;;;;;;27.93;20.53;;;5.90;99.90;;;;;;5054178;28;20195;-50
2020/12/13 06:49:12;;;;;;;27.53;20.47;;;6.00;99.90;;;;;;5054403;28;20523;-59
2020/12/13 06:51:39;;;;;;;25.80;19.97;;;5.90;99.90;;;;;;5054438;28;20175;-51
2020/12/13 06:54:07;;;;;;;27.53;21.43;;;5.90;99.90;;;;;;5048747;28;20187;-51
2020/12/13 06:56:33;;;;;;;26.23;20.07;;;5.90;99.90;;;;;;5034183;28;20234;-52
2020/12/13 06:59:02;;;;;;;28.80;21.50;;;5.70;99.90;;;;;;5040114;28;20187;-51
2020/12/13 07:01:34;;;;;;;26.30;19.23;;;5.80;99.90;;;;;;5063449;28;20182;-61
2020/12/13 07:04:25;;;;;;;27.10;20.97;;;5.80;99.90;;;;;;5074194;28;20190;-51
2020/12/13 07:06:57;;;;;;;27.37;20.57;;;5.90;99.90;;;;;;5073946;28;20205;-51
2020/12/13 07:09:24;;;;;;;24.83;19.07;;;5.90;99.90;;;;;;5058718;28;20190;-52
2020/12/13 07:11:51;;;;;;;27.07;19.63;;;6.00;99.90;;;;;;5053862;28;20202;-60
2020/12/13 07:14:18;;;;;;;25.03;19.37;;;6.00;99.90;;;;;;5044265;28;20175;-51
2020/12/13 07:16:49;;;;;;;24.40;19.40;;;6.00;99.90;;;;;;5035438;28;20214;-61
2020/12/13 07:19:16;;;;;;;26.47;19.20;;;6.00;99.90;;;;;;5042840;28;20638;-59
2020/12/13 07:21:44;;;;;;;23.93;18.40;;;5.90;99.90;;;;;;5036822;28;20179;-62
2020/12/13 07:24:10;;;;;;;24.77;18.47;;;5.80;99.90;;;;;;5035550;28;20167;-55
2020/12/13 07:26:38;;;;;;;21.67;17.37;;;5.80;99.90;;;;;;5053358;28;20194;-55
2020/12/13 07:29:13;;;;;;;24.50;18.53;;;5.80;99.90;;;;;;5053521;28;20217;-52
2020/12/13 07:31:44;;;;;;;22.73;17.37;;;5.70;99.90;;;;;;5034346;28;20163;-57
2020/12/13 07:34:09;;;;;;;23.70;17.47;;;5.70;99.90;;;;;;5033638;28;20204;-56
2020/12/13 07:36:35;;;;;;;23.07;17.70;;;5.60;99.90;;;;;;5053272;28;20241;-59
2020/12/13 07:39:03;;;;;;;22.87;17.97;;;5.60;99.90;;;;;;5051996;28;20186;-53
2020/12/13 07:41:29;;;;;;;24.03;18.70;;;5.60;99.90;;;;;;5036492;28;20171;-61
2020/12/13 07:43:56;;;;;;;25.23;19.43;;;5.70;99.90;;;;;;5048247;28;20299;-52
2020/12/13 07:46:23;;;;;;;22.53;18.17;;;5.80;99.90;;;;;;5034056;28;20615;-60
2020/12/13 07:49:06;;;;;;;24.27;19.13;;;5.90;99.90;;;;;;5050271;28;20182;-51
2020/12/13 07:51:34;;;;;;;22.70;18.20;;;6.00;99.90;;;;;;5053334;28;20198;-55
2020/12/13 07:54:13;;;;;;;22.90;17.83;;;6.10;99.90;;;;;;5034779;28;20575;-58
2020/12/13 07:56:39;;;;;;;21.80;18.40;;;6.10;99.90;;;;;;5017817;28;20195;-54
2020/12/13 07:59:19;;;;;;;22.13;17.87;;;6.20;99.90;;;;;;5017120;28;20214;-56
2020/12/13 08:01:46;;;;;;;21.40;17.20;;;6.20;99.90;;;;;;5033485;28;20262;-53
2020/12/13 08:04:14;;;;;;;21.10;17.37;;;6.30;99.90;;;;;;5040119;28;20187;-56
2020/12/13 08:06:40;;;;;;;20.63;17.07;;;6.30;99.90;;;;;;5033703;28;20675;-59
2020/12/13 08:09:10;;;;;;;20.87;16.37;;;6.30;99.90;;;;;;5033905;28;20237;-52
2020/12/13 08:11:36;;;;;;;21.10;16.77;;;6.30;99.90;;;;;;5033155;28;20194;-55
2020/12/13 08:14:04;;;;;;;21.87;17.10;;;6.30;99.90;;;;;;5041565;28;20180;-61
2020/12/13 08:16:30;;;;;;;22.23;18.00;;;6.40;99.90;;;;;;5038044;28;20257;-60
2020/12/13 08:19:04;;;;;;;21.43;17.10;;;6.30;99.90;;;;;;5044728;28;20538;-54
2020/12/13 08:21:59;;;;;;;21.07;16.80;;;6.40;99.90;;;;;;5042975;28;20173;-56
2020/12/13 08:24:29;;;;;;;22.07;17.43;;;6.40;99.90;;;;;;5036773;28;20645;-59
2020/12/13 08:26:57;;;;;;;22.77;18.10;;;6.40;99.90;;;;;;5036447;28;20252;-58
2020/12/13 08:29:24;;;;;;;20.73;16.63;;;6.50;99.90;;;;;;5048643;28;20178;-56
2020/12/13 08:31:51;;;;;;;22.07;18.33;;;6.50;99.90;;;;;;5046579;28;20180;-62
2020/12/13 08:34:29;;;;;;;21.43;17.40;;;6.50;99.90;;;;;;5054219;28;20252;-51
2020/12/13 08:36:58;;;;;;;18.83;15.40;;;6.50;99.90;;;;;;5044462;28;20211;-58
2020/12/13 08:39:27;;;;;;;21.40;17.60;;;6.50;99.90;;;;;;5062405;28;20176;-55
2020/12/13 08:41:52;;;;;;;18.63;15.37;;;6.60;99.90;;;;;;5035052;28;20272;-52
2020/12/13 08:44:35;;;;;;;19.53;15.83;;;6.60;99.90;;;;;;5067968;28;20210;-52
2020/12/13 08:47:06;;;;;;;18.57;15.43;;;6.70;99.90;;;;;;5011834;28;20689;-52
2020/12/13 08:49:38;;;;;;;19.00;15.67;;;6.70;99.90;;;;;;5053135;28;20171;-53
2020/12/13 08:52:13;;;;;;;20.20;16.33;;;6.70;99.90;;;;;;5052405;28;20548;-54
2020/12/13 08:55:05;;;;;;;19.17;15.50;;;6.70;99.90;;;;;;5056731;28;20545;-61
2020/12/13 08:57:45;;;;;;;19.90;15.40;;;6.80;99.90;;;;;;5035576;28;20286;-59
2020/12/13 09:00:15;;;;;;;19.43;15.40;;;6.80;99.90;;;;;;5055872;28;20163;-60
2020/12/13 09:03:00;;;;;;;17.60;14.87;;;6.80;99.90;;;;;;5051885;28;20215;-54
2020/12/13 09:05:33;;;;;;;21.03;17.10;;;6.80;99.90;;;;;;5037767;28;20171;-53
2020/12/13 09:08:00;;;;;;;20.67;16.17;;;6.90;99.90;;;;;;5055769;28;20536;-60
2020/12/13 09:10:38;;;;;;;21.93;17.10;;;6.80;99.90;;;;;;5053722;28;20196;-53
2020/12/13 09:13:07;;;;;;;22.30;18.20;;;6.90;99.90;;;;;;5035466;28;20665;-59
2020/12/13 09:15:33;;;;;;;19.67;16.07;;;6.80;99.90;;;;;;5037224;28;20203;-52
2020/12/13 09:18:03;;;;;;;20.27;15.90;;;6.80;99.90;;;;;;5055991;28;20210;-59
2020/12/13 09:20:31;;;;;;;19.90;15.67;;;6.80;99.90;;;;;;5043450;28;20210;-52
2020/12/13 09:23:10;;;;;;;21.83;16.50;;;6.70;99.90;;;;;;5035954;28;20210;-60
2020/12/13 09:25:54;;;;;;;18.63;15.07;;;6.70;99.90;;;;;;5046870;28;20590;-52
2020/12/13 09:28:20;;;;;;;19.53;15.33;;;6.60;99.90;;;;;;5044031;28;20666;-61
2020/12/13 09:30:46;;;;;;;18.43;14.80;;;6.60;99.90;;;;;;5046630;28;20182;-54
2020/12/13 09:33:14;;;;;;;20.03;15.73;;;6.70;99.90;;;;;;5044486;28;20237;-53
2020/12/13 09:35:39;;;;;;;20.17;16.63;;;6.70;99.90;;;;;;5026267;28;20188;-51
2020/12/13 09:38:07;;;;;;;21.67;16.40;;;6.70;99.90;;;;;;5043908;28;20655;-54
2020/12/13 09:40:32;;;;;;;21.20;16.53;;;6.70;99.90;;;;;;5057902;28;20187;-60
2020/12/13 09:42:59;;;;;;;21.07;16.50;;;6.80;99.90;;;;;;5066308;28;20210;-60
2020/12/13 09:45:25;;;;;;;20.87;15.73;;;6.80;99.90;;;;;;5043524;28;20212;-53
2020/12/13 09:47:58;;;;;;;19.67;14.93;;;6.70;99.90;;;;;;5062107;28;20195;-56
2020/12/13 09:50:25;;;;;;;20.90;16.43;;;6.70;99.90;;;;;;5058388;28;20190;-60
2020/12/13 09:52:51;;;;;;;19.83;15.73;;;6.60;99.90;;;;;;5050585;28;20214;-53
2020/12/13 09:55:17;;;;;;;17.83;14.37;;;6.70;99.90;;;;;;5036671;28;20241;-57
2020/12/13 09:57:42;;;;;;;19.07;14.97;;;6.80;99.90;;;;;;5035231;28;20611;-53
2020/12/13 10:00:08;;;;;;;18.47;14.57;;;6.90;99.90;;;;;;5022248;28;20191;-57
2020/12/13 10:02:34;;;;;;;17.97;14.53;;;7.00;99.90;;;;;;5015341;28;20215;-52
2020/12/13 10:05:01;;;;;;;19.67;15.20;;;7.10;99.90;;;;;;5046550;28;20511;-52
2020/12/13 10:09:55;;;;;;;19.37;14.67;;;7.20;99.90;;;;;;5042263;28;20183;-60
2020/12/13 10:12:22;;;;;;;19.37;15.40;;;7.30;99.90;;;;;;5047964;28;20272;-59
2020/12/13 10:14:48;;;;;;;20.60;16.90;;;7.30;99.90;;;;;;5034138;28;20200;-60
2020/12/13 10:17:13;;;;;;;18.13;14.77;;;7.50;99.90;;;;;;5034551;28;20291;-58
2020/12/13 10:19:39;;;;;;;19.17;15.17;;;7.50;99.90;;;;;;5034577;28;20241;-59
2020/12/13 10:22:04;;;;;;;20.00;16.10;;;7.60;99.90;;;;;;5045406;28;20207;-61
2020/12/13 10:24:30;;;;;;;19.00;15.10;;;7.50;99.90;;;;;;5053838;28;20186;-50
2020/12/13 10:26:56;;;;;;;19.47;15.80;;;7.50;99.90;;;;;;5045281;28;20278;-60
2020/12/13 10:29:21;;;;;;;21.27;17.20;;;7.60;99.90;;;;;;5054003;28;20537;-59
2020/12/13 10:31:47;;;;;;;22.80;17.53;;;7.60;99.90;;;;;;5045399;28;20191;-59
2020/12/13 10:34:16;;;;;;;18.93;15.33;;;7.60;99.90;;;;;;5033419;28;20176;-61
2020/12/13 10:36:43;;;;;;;22.07;17.43;;;7.50;99.90;;;;;;5038635;28;20191;-59
2020/12/13 10:39:09;;;;;;;18.97;15.20;;;7.20;99.90;;;;;;5044671;28;20270;-60
2020/12/13 10:41:35;;;;;;;24.87;16.63;;;7.00;99.90;;;;;;5053484;28;20182;-51
2020/12/13 10:44:01;;;;;;;19.47;16.13;;;6.90;99.90;;;;;;5047273;28;20751;-54
2020/12/13 10:46:27;;;;;;;25.50;19.00;;;6.70;99.90;;;;;;5042142;28;20188;-54
2020/12/13 10:48:53;;;;;;;22.60;16.90;;;6.50;99.90;;;;;;5037285;28;20240;-51
2020/12/13 10:51:19;;;;;;;19.50;16.17;;;6.40;99.90;;;;;;5053433;28;20207;-51
2020/12/13 10:53:46;;;;;;;39.77;19.43;;;6.40;99.90;;;;;;5052257;28;20178;-51
2020/12/13 10:56:12;;;;;;;23.03;17.27;;;6.30;99.90;;;;;;5052706;28;20183;-52
2020/12/13 10:58:39;;;;;;;21.73;16.37;;;6.30;99.90;;;;;;5040208;28;20265;-60
2020/12/13 11:01:06;;;;;;;21.50;16.17;;;6.40;99.90;;;;;;5053660;28;20190;-54
2020/12/13 11:03:32;;;;;;;21.30;16.73;;;6.50;99.90;;;;;;5033617;28;20602;-55
2020/12/13 11:05:57;;;;;;;22.07;17.43;;;6.60;99.90;;;;;;5033063;28;20697;-51
2020/12/13 11:08:23;;;;;;;21.10;16.90;;;6.70;99.90;;;;;;5048973;28;20221;-51
2020/12/13 11:10:49;;;;;;;22.70;17.70;;;6.70;99.90;;;;;;5052430;28;20273;-60
2020/12/13 11:13:15;;;;;;;28.30;20.40;;;6.80;99.90;;;;;;5044687;28;20178;-54
2020/12/13 11:15:45;;;;;;;24.40;17.90;;;6.90;99.90;;;;;;5050418;28;20237;-58
2020/12/13 11:18:10;;;;;;;20.73;16.33;;;6.90;99.90;;;;;;5050556;28;20579;-61
2020/12/13 11:20:36;;;;;;;21.47;15.93;;;7.00;99.90;;;;;;5053013;28;20175;-58
2020/12/13 11:23:02;;;;;;;20.40;16.13;;;7.10;99.90;;;;;;5041853;28;20210;-53
2020/12/13 11:25:28;;;;;;;22.00;15.27;;;7.30;99.90;;;;;;5051715;28;20226;-55
2020/12/13 11:27:53;;;;;;;24.23;18.00;;;7.40;99.90;;;;;;5032534;28;20716;-60
2020/12/13 11:30:19;;;;;;;21.27;16.50;;;7.40;99.90;;;;;;5055338;28;20198;-60
2020/12/13 11:32:45;;;;;;;21.67;16.20;;;7.40;99.90;;;;;;5054464;28;20198;-60
2020/12/13 11:35:14;;;;;;;22.23;16.33;;;7.40;99.90;;;;;;5014675;28;20215;-55
2020/12/13 11:37:40;;;;;;;23.50;17.33;;;7.50;99.90;;;;;;5040142;28;20203;-60
2020/12/13 11:40:06;;;;;;;29.80;23.00;;;7.40;99.90;;;;;;5033995;28;20180;-60
2020/12/13 11:42:32;;;;;;;19.73;15.97;;;7.50;99.90;;;;;;5049776;28;20320;-60
2020/12/13 11:44:58;;;;;;;22.50;17.43;;;7.60;99.90;;;;;;5045804;28;20540;-60
2020/12/13 11:47:25;;;;;;;24.17;17.40;;;7.60;99.90;;;;;;5036987;28;20215;-51
2020/12/13 11:49:51;;;;;;;22.50;16.90;;;7.60;99.90;;;;;;5047755;28;20183;-52
2020/12/13 11:52:16;;;;;;;24.80;18.70;;;7.70;99.90;;;;;;5057063;28;20210;-55
2020/12/13 11:54:42;;;;;;;23.97;18.27;;;7.70;99.90;;;;;;5052777;28;20585;-59
2020/12/13 11:57:08;;;;;;;22.63;17.17;;;7.80;99.90;;;;;;5042736;28;20262;-54
2020/12/13 11:59:34;;;;;;;22.93;17.93;;;7.80;99.90;;;;;;5044890;28;20195;-56
2020/12/13 12:01:59;;;;;;;22.97;19.23;;;7.70;99.90;;;;;;5041699;28;20198;-58
2020/12/13 12:04:27;;;;;;;25.27;19.33;;;7.70;99.90;;;;;;5044229;28;20192;-55
2020/12/13 12:06:54;;;;;;;23.93;17.73;;;7.60;99.90;;;;;;5053329;28;20205;-55
2020/12/13 12:09:20;;;;;;;22.60;17.47;;;7.50;99.90;;;;;;5033255;28;20202;-60
2020/12/13 12:11:46;;;;;;;22.60;17.43;;;7.60;99.90;;;;;;5049278;28;20538;-58
2020/12/13 12:14:12;;;;;;;24.53;17.47;;;7.70;99.90;;;;;;5053918;28;20662;-51
2020/12/13 12:16:42;;;;;;;21.50;15.17;;;7.70;99.90;;;;;;5056407;28;20226;-57
2020/12/13 12:19:09;;;;;;;21.80;14.23;;;7.60;99.90;;;;;;5045552;28;20370;-58
2020/12/13 12:21:36;;;;;;;23.53;14.63;;;7.70;99.90;;;;;;5054257;28;20179;-55
2020/12/13 12:24:02;;;;;;;19.87;14.30;;;7.80;99.90;;;;;;5049499;28;20218;-60
2020/12/13 12:26:32;;;;;;;26.10;16.83;;;7.80;99.90;;;;;;5054387;28;20171;-57
2020/12/13 12:28:59;;;;;;;22.60;14.90;;;7.90;99.90;;;;;;5054395;28;20167;-55
2020/12/13 12:31:25;;;;;;;21.33;15.13;;;8.00;99.90;;;;;;5053806;28;20340;-62
2020/12/13 12:33:51;;;;;;;18.07;13.93;;;8.00;99.90;;;;;;5055930;28;20198;-52
2020/12/13 12:36:19;;;;;;;19.13;13.87;;;8.10;99.90;;;;;;5055255;28;20186;-54
2020/12/13 12:38:45;;;;;;;19.73;14.07;;;8.00;99.90;;;;;;5037769;28;20206;-51
2020/12/13 12:41:12;;;;;;;19.20;14.53;;;8.00;99.90;;;;;;5056038;28;20179;-51
2020/12/13 12:43:39;;;;;;;20.43;14.60;;;7.90;99.90;;;;;;5037721;28;20329;-59